sensor_id;sensor_type;location;lat;lon;timestamp;P1;durP1;ratioP1;P2;durP2;ratioP2
18459;SDS011;9359;50.932;6.924;2024-02-04T00:01:15;32.77;;;15.83;;
18459;SDS011;9359;50.932;6.924;2024-02-04T00:03:48;34.10;;;15.77;;
18459;SDS011;9359;50.932;6.924;2024-02-04T00:06:19;34.87;;;17.37;;
18459;SDS011;9359;50.932;6.924;2024-02-04T00:08:50;39.70;;;18.00;;
18459;SDS011;9359;50.932;6.924;2024-02-04T00:11:20;45.20;;;19.37;;
18459;SDS011;9359;50.932;6.924;2024-02-04T00:13:52;32.17;;;14.67;;
18459;SDS011;9359;50.932;6.924;2024-02-04T00:16:23;28.03;;;13.67;;
18459;SDS011;9359;50.932;6.924;2024-02-04T00:18:56;39.67;;;19.70;;
18459;SDS011;9359;50.932;6.924;2024-02-04T00:21:26;29.93;;;15.53;;
18459;SDS011;9359;50.932;6.924;2024-02-04T00:23:56;38.47;;;19.10;;
18459;SDS011;9359;50.932;6.924;2024-02-04T00:26:27;26.30;;;13.67;;
18459;SDS011;9359;50.932;6.924;2024-02-04T00:28:57;36.77;;;17.13;;
18459;SDS011;9359;50.932;6.924;2024-02-04T00:31:28;40.77;;;19.17;;
18459;SDS011;9359;50.932;6.924;2024-02-04T00:34:00;41.13;;;18.97;;
18459;SDS011;9359;50.932;6.924;2024-02-04T00:36:31;26.90;;;13.63;;
18459;SDS011;9359;50.932;6.924;2024-02-04T00:39:02;33.27;;;14.37;;
18459;SDS011;9359;50.932;6.924;2024-02-04T00:41:33;35.17;;;16.80;;
18459;SDS011;9359;50.932;6.924;2024-02-04T00:44:10;42.50;;;20.63;;
18459;SDS011;9359;50.932;6.924;2024-02-04T00:46:41;47.47;;;21.43;;
18459;SDS011;9359;50.932;6.924;2024-02-04T00:49:14;27.73;;;13.63;;
18459;SDS011;9359;50.932;6.924;2024-02-04T00:51:44;27.03;;;12.70;;
18459;SDS011;9359;50.932;6.924;2024-02-04T00:54:15;33.17;;;16.07;;
18459;SDS011;9359;50.932;6.924;2024-02-04T00:56:45;24.93;;;12.50;;
18459;SDS011;9359;50.932;6.924;2024-02-04T00:59:15;26.73;;;12.97;;
18459;SDS011;9359;50.932;6.924;2024-02-04T01:01:46;27.57;;;14.07;;
18459;SDS011;9359;50.932;6.924;2024-02-04T01:04:18;37.90;;;18.13;;
18459;SDS011;9359;50.932;6.924;2024-02-04T01:06:49;26.03;;;12.80;;
18459;SDS011;9359;50.932;6.924;2024-02-04T01:09:19;36.60;;;16.70;;
18459;SDS011;9359;50.932;6.924;2024-02-04T01:11:49;41.13;;;19.27;;
18459;SDS011;9359;50.932;6.924;2024-02-04T01:14:20;33.60;;;15.33;;
18459;SDS011;9359;50.932;6.924;2024-02-04T01:16:51;29.50;;;15.47;;
18459;SDS011;9359;50.932;6.924;2024-02-04T01:19:23;29.00;;;13.40;;
18459;SDS011;9359;50.932;6.924;2024-02-04T01:21:54;33.30;;;16.10;;
18459;SDS011;9359;50.932;6.924;2024-02-04T01:24:24;28.27;;;15.40;;
18459;SDS011;9359;50.932;6.924;2024-02-04T01:26:55;29.70;;;13.97;;
18459;SDS011;9359;50.932;6.924;2024-02-04T01:29:25;31.17;;;15.37;;
18459;SDS011;9359;50.932;6.924;2024-02-04T01:31:56;27.33;;;12.80;;
18459;SDS011;9359;50.932;6.924;2024-02-04T01:34:28;45.67;;;19.83;;
18459;SDS011;9359;50.932;6.924;2024-02-04T01:36:58;40.07;;;16.20;;
18459;SDS011;9359;50.932;6.924;2024-02-04T01:39:29;39.50;;;17.80;;
18459;SDS011;9359;50.932;6.924;2024-02-04T01:41:59;33.87;;;16.07;;
18459;SDS011;9359;50.932;6.924;2024-02-04T01:44:31;30.87;;;14.90;;
18459;SDS011;9359;50.932;6.924;2024-02-04T01:47:01;36.30;;;17.30;;
18459;SDS011;9359;50.932;6.924;2024-02-04T01:49:34;32.30;;;16.13;;
18459;SDS011;9359;50.932;6.924;2024-02-04T01:52:05;32.33;;;16.20;;
18459;SDS011;9359;50.932;6.924;2024-02-04T01:54:37;27.33;;;13.67;;
18459;SDS011;9359;50.932;6.924;2024-02-04T01:57:10;28.10;;;14.97;;
18459;SDS011;9359;50.932;6.924;2024-02-04T01:59:42;40.50;;;19.97;;
18459;SDS011;9359;50.932;6.924;2024-02-04T02:02:13;37.87;;;16.20;;
18459;SDS011;9359;50.932;6.924;2024-02-04T02:04:45;41.93;;;20.40;;
18459;SDS011;9359;50.932;6.924;2024-02-04T02:07:16;38.97;;;20.27;;
18459;SDS011;9359;50.932;6.924;2024-02-04T02:09:48;33.23;;;16.43;;
18459;SDS011;9359;50.932;6.924;2024-02-04T02:12:19;37.23;;;16.87;;
18459;SDS011;9359;50.932;6.924;2024-02-04T02:14:56;22.87;;;11.30;;
18459;SDS011;9359;50.932;6.924;2024-02-04T02:17:31;36.93;;;17.83;;
18459;SDS011;9359;50.932;6.924;2024-02-04T02:20:09;43.97;;;20.47;;
18459;SDS011;9359;50.932;6.924;2024-02-04T02:22:48;37.00;;;18.57;;
18459;SDS011;9359;50.932;6.924;2024-02-04T02:25:22;31.23;;;14.70;;
18459;SDS011;9359;50.932;6.924;2024-02-04T02:27:53;35.80;;;18.33;;
18459;SDS011;9359;50.932;6.924;2024-02-04T02:30:24;33.33;;;15.67;;
18459;SDS011;9359;50.932;6.924;2024-02-04T02:32:54;32.93;;;15.57;;
18459;SDS011;9359;50.932;6.924;2024-02-04T02:35:25;37.53;;;18.20;;
18459;SDS011;9359;50.932;6.924;2024-02-04T02:37:56;35.60;;;15.47;;
18459;SDS011;9359;50.932;6.924;2024-02-04T02:40:36;45.93;;;19.33;;
18459;SDS011;9359;50.932;6.924;2024-02-04T02:43:11;32.67;;;16.53;;
18459;SDS011;9359;50.932;6.924;2024-02-04T02:45:42;41.83;;;19.93;;
18459;SDS011;9359;50.932;6.924;2024-02-04T02:48:13;37.20;;;17.20;;
18459;SDS011;9359;50.932;6.924;2024-02-04T02:50:44;28.20;;;15.03;;
18459;SDS011;9359;50.932;6.924;2024-02-04T02:53:16;37.17;;;15.33;;
18459;SDS011;9359;50.932;6.924;2024-02-04T02:55:48;29.60;;;13.77;;
18459;SDS011;9359;50.932;6.924;2024-02-04T02:58:19;37.70;;;19.27;;
18459;SDS011;9359;50.932;6.924;2024-02-04T03:00:49;37.90;;;19.40;;
18459;SDS011;9359;50.932;6.924;2024-02-04T03:03:19;39.23;;;20.37;;
18459;SDS011;9359;50.932;6.924;2024-02-04T03:05:50;21.93;;;11.50;;
18459;SDS011;9359;50.932;6.924;2024-02-04T03:08:20;37.63;;;17.23;;
18459;SDS011;9359;50.932;6.924;2024-02-04T03:10:53;45.73;;;20.93;;
18459;SDS011;9359;50.932;6.924;2024-02-04T03:13:23;32.73;;;14.97;;
18459;SDS011;9359;50.932;6.924;2024-02-04T03:15:53;34.43;;;14.40;;
18459;SDS011;9359;50.932;6.924;2024-02-04T03:18:24;38.23;;;14.07;;
18459;SDS011;9359;50.932;6.924;2024-02-04T03:20:54;37.30;;;15.43;;
18459;SDS011;9359;50.932;6.924;2024-02-04T03:23:25;29.90;;;14.30;;
18459;SDS011;9359;50.932;6.924;2024-02-04T03:25:58;37.63;;;16.47;;
18459;SDS011;9359;50.932;6.924;2024-02-04T03:28:28;29.77;;;13.40;;
18459;SDS011;9359;50.932;6.924;2024-02-04T03:30:58;29.40;;;14.23;;
18459;SDS011;9359;50.932;6.924;2024-02-04T03:33:29;33.80;;;14.27;;
18459;SDS011;9359;50.932;6.924;2024-02-04T03:35:59;36.97;;;15.73;;
18459;SDS011;9359;50.932;6.924;2024-02-04T03:38:30;39.43;;;18.23;;
18459;SDS011;9359;50.932;6.924;2024-02-04T03:41:03;25.00;;;12.37;;
18459;SDS011;9359;50.932;6.924;2024-02-04T03:43:33;33.17;;;14.77;;
18459;SDS011;9359;50.932;6.924;2024-02-04T03:46:06;28.13;;;13.13;;
18459;SDS011;9359;50.932;6.924;2024-02-04T03:48:36;27.63;;;13.77;;
18459;SDS011;9359;50.932;6.924;2024-02-04T03:51:07;29.03;;;14.13;;
18459;SDS011;9359;50.932;6.924;2024-02-04T03:53:43;28.60;;;12.43;;
18459;SDS011;9359;50.932;6.924;2024-02-04T03:56:15;23.57;;;11.40;;
18459;SDS011;9359;50.932;6.924;2024-02-04T03:58:46;36.50;;;14.50;;
18459;SDS011;9359;50.932;6.924;2024-02-04T04:01:16;29.03;;;12.23;;
18459;SDS011;9359;50.932;6.924;2024-02-04T04:03:47;22.40;;;11.80;;
18459;SDS011;9359;50.932;6.924;2024-02-04T04:06:19;24.13;;;11.87;;
18459;SDS011;9359;50.932;6.924;2024-02-04T04:08:49;31.37;;;13.43;;
18459;SDS011;9359;50.932;6.924;2024-02-04T04:11:22;26.23;;;12.17;;
18459;SDS011;9359;50.932;6.924;2024-02-04T04:13:52;25.40;;;13.03;;
18459;SDS011;9359;50.932;6.924;2024-02-04T04:16:22;24.83;;;12.40;;
18459;SDS011;9359;50.932;6.924;2024-02-04T04:18:53;23.17;;;11.07;;
18459;SDS011;9359;50.932;6.924;2024-02-04T04:21:24;22.27;;;11.03;;
18459;SDS011;9359;50.932;6.924;2024-02-04T04:23:55;20.90;;;10.90;;
18459;SDS011;9359;50.932;6.924;2024-02-04T04:26:27;21.37;;;11.33;;
18459;SDS011;9359;50.932;6.924;2024-02-04T04:28:58;22.27;;;11.43;;
18459;SDS011;9359;50.932;6.924;2024-02-04T04:31:28;24.50;;;11.90;;
18459;SDS011;9359;50.932;6.924;2024-02-04T04:33:59;21.17;;;11.73;;
18459;SDS011;9359;50.932;6.924;2024-02-04T04:36:29;22.40;;;11.17;;
18459;SDS011;9359;50.932;6.924;2024-02-04T04:39:00;28.23;;;12.50;;
18459;SDS011;9359;50.932;6.924;2024-02-04T04:41:32;24.63;;;12.27;;
18459;SDS011;9359;50.932;6.924;2024-02-04T04:44:04;24.90;;;11.80;;
18459;SDS011;9359;50.932;6.924;2024-02-04T04:46:37;24.30;;;11.03;;
18459;SDS011;9359;50.932;6.924;2024-02-04T04:49:07;22.43;;;11.37;;
18459;SDS011;9359;50.932;6.924;2024-02-04T04:51:38;21.67;;;11.80;;
18459;SDS011;9359;50.932;6.924;2024-02-04T04:54:12;22.37;;;10.87;;
18459;SDS011;9359;50.932;6.924;2024-02-04T04:56:45;24.43;;;11.53;;
18459;SDS011;9359;50.932;6.924;2024-02-04T04:59:15;27.50;;;12.80;;
18459;SDS011;9359;50.932;6.924;2024-02-04T05:01:46;22.70;;;11.70;;
18459;SDS011;9359;50.932;6.924;2024-02-04T05:04:17;32.33;;;13.63;;
18459;SDS011;9359;50.932;6.924;2024-02-04T05:06:49;29.77;;;12.17;;
18459;SDS011;9359;50.932;6.924;2024-02-04T05:09:20;26.13;;;11.57;;
18459;SDS011;9359;50.932;6.924;2024-02-04T05:11:52;35.47;;;12.20;;
18459;SDS011;9359;50.932;6.924;2024-02-04T05:14:22;24.23;;;12.20;;
18459;SDS011;9359;50.932;6.924;2024-02-04T05:16:53;24.03;;;11.10;;
18459;SDS011;9359;50.932;6.924;2024-02-04T05:19:23;24.10;;;11.60;;
18459;SDS011;9359;50.932;6.924;2024-02-04T05:21:54;26.33;;;10.27;;
18459;SDS011;9359;50.932;6.924;2024-02-04T05:24:25;24.00;;;10.57;;
18459;SDS011;9359;50.932;6.924;2024-02-04T05:26:57;30.80;;;11.37;;
18459;SDS011;9359;50.932;6.924;2024-02-04T05:29:27;26.73;;;11.00;;
18459;SDS011;9359;50.932;6.924;2024-02-04T05:31:59;29.47;;;11.43;;
18459;SDS011;9359;50.932;6.924;2024-02-04T05:34:30;23.70;;;10.87;;
18459;SDS011;9359;50.932;6.924;2024-02-04T05:37:00;29.83;;;12.73;;
18459;SDS011;9359;50.932;6.924;2024-02-04T05:39:31;27.60;;;11.97;;
18459;SDS011;9359;50.932;6.924;2024-02-04T05:42:03;27.77;;;12.13;;
18459;SDS011;9359;50.932;6.924;2024-02-04T05:44:34;27.17;;;12.60;;
18459;SDS011;9359;50.932;6.924;2024-02-04T05:47:05;30.53;;;13.80;;
18459;SDS011;9359;50.932;6.924;2024-02-04T05:49:35;32.67;;;13.30;;
18459;SDS011;9359;50.932;6.924;2024-02-04T05:52:06;38.13;;;13.63;;
18459;SDS011;9359;50.932;6.924;2024-02-04T05:54:39;33.13;;;14.33;;
18459;SDS011;9359;50.932;6.924;2024-02-04T05:57:13;36.97;;;15.63;;
18459;SDS011;9359;50.932;6.924;2024-02-04T05:59:44;40.10;;;15.30;;
18459;SDS011;9359;50.932;6.924;2024-02-04T06:02:14;41.30;;;16.67;;
18459;SDS011;9359;50.932;6.924;2024-02-04T06:04:45;35.80;;;15.53;;
18459;SDS011;9359;50.932;6.924;2024-02-04T06:07:15;41.50;;;17.90;;
18459;SDS011;9359;50.932;6.924;2024-02-04T06:09:46;53.90;;;20.60;;
18459;SDS011;9359;50.932;6.924;2024-02-04T06:12:18;59.03;;;28.73;;
18459;SDS011;9359;50.932;6.924;2024-02-04T06:14:49;89.70;;;40.83;;
18459;SDS011;9359;50.932;6.924;2024-02-04T06:17:19;131.63;;;57.13;;
18459;SDS011;9359;50.932;6.924;2024-02-04T06:19:50;146.63;;;67.97;;
18459;SDS011;9359;50.932;6.924;2024-02-04T06:22:21;141.53;;;62.03;;
18459;SDS011;9359;50.932;6.924;2024-02-04T06:24:52;136.43;;;57.83;;
18459;SDS011;9359;50.932;6.924;2024-02-04T06:27:24;125.00;;;53.90;;
18459;SDS011;9359;50.932;6.924;2024-02-04T06:29:55;104.77;;;50.10;;
18459;SDS011;9359;50.932;6.924;2024-02-04T06:32:26;105.40;;;49.97;;
18459;SDS011;9359;50.932;6.924;2024-02-04T06:34:57;104.93;;;46.57;;
18459;SDS011;9359;50.932;6.924;2024-02-04T06:37:27;114.03;;;45.50;;
18459;SDS011;9359;50.932;6.924;2024-02-04T06:39:57;103.53;;;44.83;;
18459;SDS011;9359;50.932;6.924;2024-02-04T06:42:30;97.27;;;42.73;;
18459;SDS011;9359;50.932;6.924;2024-02-04T06:45:00;83.87;;;40.53;;
18459;SDS011;9359;50.932;6.924;2024-02-04T06:47:31;98.33;;;42.57;;
18459;SDS011;9359;50.932;6.924;2024-02-04T06:50:02;91.87;;;41.53;;
18459;SDS011;9359;50.932;6.924;2024-02-04T06:52:32;90.13;;;39.13;;
18459;SDS011;9359;50.932;6.924;2024-02-04T06:55:03;83.33;;;37.17;;
18459;SDS011;9359;50.932;6.924;2024-02-04T06:57:36;82.23;;;33.93;;
18459;SDS011;9359;50.932;6.924;2024-02-04T07:00:07;85.70;;;38.43;;
18459;SDS011;9359;50.932;6.924;2024-02-04T07:02:38;82.60;;;37.90;;
18459;SDS011;9359;50.932;6.924;2024-02-04T07:05:08;81.47;;;36.57;;
18459;SDS011;9359;50.932;6.924;2024-02-04T07:07:39;81.43;;;35.60;;
18459;SDS011;9359;50.932;6.924;2024-02-04T07:10:10;80.07;;;35.20;;
18459;SDS011;9359;50.932;6.924;2024-02-04T07:12:42;67.43;;;35.10;;
18459;SDS011;9359;50.932;6.924;2024-02-04T07:15:13;78.53;;;35.20;;
18459;SDS011;9359;50.932;6.924;2024-02-04T07:17:43;72.23;;;33.80;;
18459;SDS011;9359;50.932;6.924;2024-02-04T07:20:13;66.90;;;31.93;;
18459;SDS011;9359;50.932;6.924;2024-02-04T07:22:44;68.10;;;32.20;;
18459;SDS011;9359;50.932;6.924;2024-02-04T07:25:15;64.77;;;31.50;;
18459;SDS011;9359;50.932;6.924;2024-02-04T07:27:48;72.87;;;31.60;;
18459;SDS011;9359;50.932;6.924;2024-02-04T07:30:18;61.93;;;32.40;;
18459;SDS011;9359;50.932;6.924;2024-02-04T07:32:49;69.30;;;33.87;;
18459;SDS011;9359;50.932;6.924;2024-02-04T07:35:19;65.03;;;32.87;;
18459;SDS011;9359;50.932;6.924;2024-02-04T07:37:50;62.87;;;32.00;;
18459;SDS011;9359;50.932;6.924;2024-02-04T07:40:20;72.43;;;31.50;;
18459;SDS011;9359;50.932;6.924;2024-02-04T07:42:54;71.40;;;31.73;;
18459;SDS011;9359;50.932;6.924;2024-02-04T07:45:25;63.90;;;29.13;;
18459;SDS011;9359;50.932;6.924;2024-02-04T07:47:55;58.23;;;28.67;;
18459;SDS011;9359;50.932;6.924;2024-02-04T07:50:26;71.43;;;31.17;;
18459;SDS011;9359;50.932;6.924;2024-02-04T07:52:56;65.97;;;33.80;;
18459;SDS011;9359;50.932;6.924;2024-02-04T07:55:27;60.27;;;29.60;;
18459;SDS011;9359;50.932;6.924;2024-02-04T07:57:59;65.50;;;29.13;;
18459;SDS011;9359;50.932;6.924;2024-02-04T08:00:30;59.83;;;24.30;;
18459;SDS011;9359;50.932;6.924;2024-02-04T08:03:00;63.53;;;26.10;;
18459;SDS011;9359;50.932;6.924;2024-02-04T08:05:30;58.80;;;25.73;;
18459;SDS011;9359;50.932;6.924;2024-02-04T08:08:01;49.17;;;22.83;;
18459;SDS011;9359;50.932;6.924;2024-02-04T08:10:32;60.17;;;27.63;;
18459;SDS011;9359;50.932;6.924;2024-02-04T08:13:04;48.70;;;24.90;;
18459;SDS011;9359;50.932;6.924;2024-02-04T08:15:35;39.03;;;20.40;;
18459;SDS011;9359;50.932;6.924;2024-02-04T08:18:06;58.87;;;27.43;;
18459;SDS011;9359;50.932;6.924;2024-02-04T08:20:37;46.43;;;21.00;;
18459;SDS011;9359;50.932;6.924;2024-02-04T08:23:07;45.93;;;21.67;;
18459;SDS011;9359;50.932;6.924;2024-02-04T08:25:38;38.43;;;20.77;;
18459;SDS011;9359;50.932;6.924;2024-02-04T08:28:11;48.07;;;23.60;;
18459;SDS011;9359;50.932;6.924;2024-02-04T08:30:41;40.57;;;19.90;;
18459;SDS011;9359;50.932;6.924;2024-02-04T08:33:12;44.00;;;21.43;;
18459;SDS011;9359;50.932;6.924;2024-02-04T08:35:44;46.97;;;20.37;;
18459;SDS011;9359;50.932;6.924;2024-02-04T08:38:14;47.97;;;21.80;;
18459;SDS011;9359;50.932;6.924;2024-02-04T08:40:45;38.93;;;17.20;;
18459;SDS011;9359;50.932;6.924;2024-02-04T08:43:17;35.63;;;15.67;;
18459;SDS011;9359;50.932;6.924;2024-02-04T08:45:47;41.13;;;20.77;;
18459;SDS011;9359;50.932;6.924;2024-02-04T08:48:18;36.73;;;17.17;;
18459;SDS011;9359;50.932;6.924;2024-02-04T08:50:48;48.67;;;22.17;;
18459;SDS011;9359;50.932;6.924;2024-02-04T08:53:20;45.00;;;21.07;;
18459;SDS011;9359;50.932;6.924;2024-02-04T08:55:50;52.10;;;24.03;;
18459;SDS011;9359;50.932;6.924;2024-02-04T08:58:23;45.53;;;22.17;;
18459;SDS011;9359;50.932;6.924;2024-02-04T09:00:53;31.03;;;14.27;;
18459;SDS011;9359;50.932;6.924;2024-02-04T09:03:24;35.10;;;18.27;;
18459;SDS011;9359;50.932;6.924;2024-02-04T09:05:54;46.00;;;21.27;;
18459;SDS011;9359;50.932;6.924;2024-02-04T09:08:24;47.87;;;23.00;;
18459;SDS011;9359;50.932;6.924;2024-02-04T09:10:56;38.53;;;17.17;;
18459;SDS011;9359;50.932;6.924;2024-02-04T09:13:28;33.70;;;17.53;;
18459;SDS011;9359;50.932;6.924;2024-02-04T09:15:59;36.40;;;16.73;;
18459;SDS011;9359;50.932;6.924;2024-02-04T09:18:30;31.83;;;16.67;;
18459;SDS011;9359;50.932;6.924;2024-02-04T09:21:01;33.60;;;16.40;;
18459;SDS011;9359;50.932;6.924;2024-02-04T09:23:31;30.53;;;14.47;;
18459;SDS011;9359;50.932;6.924;2024-02-04T09:26:02;32.60;;;16.57;;
18459;SDS011;9359;50.932;6.924;2024-02-04T09:28:34;38.13;;;16.90;;
18459;SDS011;9359;50.932;6.924;2024-02-04T09:31:08;31.60;;;15.20;;
18459;SDS011;9359;50.932;6.924;2024-02-04T09:33:39;39.57;;;18.37;;
18459;SDS011;9359;50.932;6.924;2024-02-04T09:36:09;47.30;;;20.77;;
18459;SDS011;9359;50.932;6.924;2024-02-04T09:38:40;29.27;;;15.77;;
18459;SDS011;9359;50.932;6.924;2024-02-04T09:41:12;34.23;;;16.10;;
18459;SDS011;9359;50.932;6.924;2024-02-04T09:43:44;25.80;;;13.03;;
18459;SDS011;9359;50.932;6.924;2024-02-04T09:46:16;31.93;;;14.60;;
18459;SDS011;9359;50.932;6.924;2024-02-04T09:48:47;35.30;;;16.07;;
18459;SDS011;9359;50.932;6.924;2024-02-04T09:51:19;49.17;;;22.97;;
18459;SDS011;9359;50.932;6.924;2024-02-04T09:53:51;51.20;;;24.80;;
18459;SDS011;9359;50.932;6.924;2024-02-04T09:56:22;32.37;;;16.13;;
18459;SDS011;9359;50.932;6.924;2024-02-04T09:58:58;49.77;;;23.33;;
18459;SDS011;9359;50.932;6.924;2024-02-04T10:01:28;33.20;;;17.50;;
18459;SDS011;9359;50.932;6.924;2024-02-04T10:03:59;42.00;;;19.83;;
18459;SDS011;9359;50.932;6.924;2024-02-04T10:06:30;29.97;;;15.57;;
18459;SDS011;9359;50.932;6.924;2024-02-04T10:09:01;31.07;;;16.83;;
18459;SDS011;9359;50.932;6.924;2024-02-04T10:11:32;40.70;;;19.77;;
18459;SDS011;9359;50.932;6.924;2024-02-04T10:14:04;28.87;;;15.30;;
18459;SDS011;9359;50.932;6.924;2024-02-04T10:16:35;31.07;;;16.33;;
18459;SDS011;9359;50.932;6.924;2024-02-04T10:19:06;34.73;;;17.47;;
18459;SDS011;9359;50.932;6.924;2024-02-04T10:21:37;31.87;;;14.33;;
18459;SDS011;9359;50.932;6.924;2024-02-04T10:24:07;42.07;;;15.73;;
18459;SDS011;9359;50.932;6.924;2024-02-04T10:26:38;39.00;;;18.30;;
18459;SDS011;9359;50.932;6.924;2024-02-04T10:29:11;38.67;;;16.53;;
18459;SDS011;9359;50.932;6.924;2024-02-04T10:31:42;31.90;;;15.40;;
18459;SDS011;9359;50.932;6.924;2024-02-04T10:34:13;34.50;;;17.40;;
18459;SDS011;9359;50.932;6.924;2024-02-04T10:36:45;27.93;;;13.00;;
18459;SDS011;9359;50.932;6.924;2024-02-04T10:39:15;37.73;;;16.80;;
18459;SDS011;9359;50.932;6.924;2024-02-04T10:41:48;35.27;;;14.50;;
18459;SDS011;9359;50.932;6.924;2024-02-04T10:44:23;36.80;;;15.97;;
18459;SDS011;9359;50.932;6.924;2024-02-04T10:46:55;28.40;;;13.50;;
18459;SDS011;9359;50.932;6.924;2024-02-04T10:49:26;35.00;;;16.00;;
18459;SDS011;9359;50.932;6.924;2024-02-04T10:51:59;32.77;;;14.20;;
18459;SDS011;9359;50.932;6.924;2024-02-04T10:54:31;34.30;;;14.70;;
18459;SDS011;9359;50.932;6.924;2024-02-04T10:57:06;32.70;;;14.60;;
18459;SDS011;9359;50.932;6.924;2024-02-04T10:59:43;23.83;;;12.63;;
18459;SDS011;9359;50.932;6.924;2024-02-04T11:02:15;20.83;;;10.80;;
18459;SDS011;9359;50.932;6.924;2024-02-04T11:04:48;24.07;;;12.63;;
18459;SDS011;9359;50.932;6.924;2024-02-04T11:07:19;33.60;;;15.97;;
18459;SDS011;9359;50.932;6.924;2024-02-04T11:09:50;34.17;;;16.20;;
18459;SDS011;9359;50.932;6.924;2024-02-04T11:12:21;36.60;;;17.97;;
18459;SDS011;9359;50.932;6.924;2024-02-04T11:14:54;36.83;;;19.17;;
18459;SDS011;9359;50.932;6.924;2024-02-04T11:20:30;35.93;;;17.73;;
18459;SDS011;9359;50.932;6.924;2024-02-04T11:23:19;29.40;;;14.40;;
18459;SDS011;9359;50.932;6.924;2024-02-04T11:26:02;40.87;;;19.70;;
18459;SDS011;9359;50.932;6.924;2024-02-04T11:28:33;32.30;;;15.77;;
18459;SDS011;9359;50.932;6.924;2024-02-04T11:31:09;28.23;;;13.70;;
18459;SDS011;9359;50.932;6.924;2024-02-04T11:33:44;29.03;;;14.00;;
18459;SDS011;9359;50.932;6.924;2024-02-04T11:36:16;33.57;;;16.83;;
18459;SDS011;9359;50.932;6.924;2024-02-04T11:38:48;24.03;;;11.50;;
18459;SDS011;9359;50.932;6.924;2024-02-04T11:41:22;28.60;;;11.30;;
18459;SDS011;9359;50.932;6.924;2024-02-04T11:43:55;30.90;;;13.73;;
18459;SDS011;9359;50.932;6.924;2024-02-04T11:46:29;26.13;;;13.10;;
18459;SDS011;9359;50.932;6.924;2024-02-04T11:49:00;30.10;;;11.83;;
18459;SDS011;9359;50.932;6.924;2024-02-04T11:51:31;44.90;;;11.27;;
18459;SDS011;9359;50.932;6.924;2024-02-04T11:54:01;27.67;;;13.40;;
18459;SDS011;9359;50.932;6.924;2024-02-04T11:56:32;31.33;;;13.80;;
18459;SDS011;9359;50.932;6.924;2024-02-04T11:59:04;30.33;;;12.87;;
18459;SDS011;9359;50.932;6.924;2024-02-04T12:01:37;34.30;;;13.90;;
18459;SDS011;9359;50.932;6.924;2024-02-04T12:04:11;42.20;;;15.70;;
18459;SDS011;9359;50.932;6.924;2024-02-04T12:06:42;36.47;;;15.07;;
18459;SDS011;9359;50.932;6.924;2024-02-04T12:09:13;35.63;;;16.47;;
18459;SDS011;9359;50.932;6.924;2024-02-04T12:11:48;35.63;;;15.63;;
18459;SDS011;9359;50.932;6.924;2024-02-04T12:14:20;43.60;;;17.20;;
18459;SDS011;9359;50.932;6.924;2024-02-04T12:16:53;38.07;;;16.63;;
18459;SDS011;9359;50.932;6.924;2024-02-04T12:19:25;40.07;;;16.17;;
18459;SDS011;9359;50.932;6.924;2024-02-04T12:21:56;33.50;;;16.07;;
18459;SDS011;9359;50.932;6.924;2024-02-04T12:24:27;40.00;;;17.43;;
18459;SDS011;9359;50.932;6.924;2024-02-04T12:26:58;43.00;;;16.37;;
18459;SDS011;9359;50.932;6.924;2024-02-04T12:29:30;35.43;;;17.30;;
18459;SDS011;9359;50.932;6.924;2024-02-04T12:32:03;36.40;;;17.37;;
18459;SDS011;9359;50.932;6.924;2024-02-04T12:34:33;36.87;;;16.17;;
18459;SDS011;9359;50.932;6.924;2024-02-04T12:37:04;35.40;;;16.30;;
18459;SDS011;9359;50.932;6.924;2024-02-04T12:39:34;38.83;;;18.03;;
18459;SDS011;9359;50.932;6.924;2024-02-04T12:42:05;36.73;;;17.43;;
18459;SDS011;9359;50.932;6.924;2024-02-04T12:44:36;32.10;;;16.33;;
18459;SDS011;9359;50.932;6.924;2024-02-04T12:47:07;39.03;;;15.67;;
18459;SDS011;9359;50.932;6.924;2024-02-04T12:49:37;29.63;;;14.97;;
18459;SDS011;9359;50.932;6.924;2024-02-04T12:52:08;25.07;;;12.27;;
18459;SDS011;9359;50.932;6.924;2024-02-04T12:54:42;28.03;;;12.23;;
18459;SDS011;9359;50.932;6.924;2024-02-04T12:57:21;24.20;;;11.07;;
18459;SDS011;9359;50.932;6.924;2024-02-04T12:59:54;23.40;;;11.37;;
18459;SDS011;9359;50.932;6.924;2024-02-04T13:02:36;21.83;;;10.87;;
18459;SDS011;9359;50.932;6.924;2024-02-04T13:05:07;20.73;;;10.37;;
18459;SDS011;9359;50.932;6.924;2024-02-04T13:07:38;21.03;;;10.50;;
18459;SDS011;9359;50.932;6.924;2024-02-04T13:10:08;20.67;;;9.77;;
18459;SDS011;9359;50.932;6.924;2024-02-04T13:12:41;19.03;;;9.53;;
18459;SDS011;9359;50.932;6.924;2024-02-04T13:15:12;21.47;;;10.27;;
18459;SDS011;9359;50.932;6.924;2024-02-04T13:17:45;20.30;;;9.87;;
18459;SDS011;9359;50.932;6.924;2024-02-04T13:20:16;23.07;;;11.03;;
18459;SDS011;9359;50.932;6.924;2024-02-04T13:22:46;18.33;;;9.13;;
18459;SDS011;9359;50.932;6.924;2024-02-04T13:25:17;18.80;;;9.53;;
18459;SDS011;9359;50.932;6.924;2024-02-04T13:27:47;19.83;;;10.30;;
18459;SDS011;9359;50.932;6.924;2024-02-04T13:30:18;24.27;;;10.90;;
18459;SDS011;9359;50.932;6.924;2024-02-04T13:32:50;19.53;;;9.80;;
18459;SDS011;9359;50.932;6.924;2024-02-04T13:35:21;22.87;;;9.97;;
18459;SDS011;9359;50.932;6.924;2024-02-04T13:37:51;19.40;;;9.50;;
18459;SDS011;9359;50.932;6.924;2024-02-04T13:40:22;20.00;;;10.97;;
18459;SDS011;9359;50.932;6.924;2024-02-04T13:42:53;17.07;;;9.40;;
18459;SDS011;9359;50.932;6.924;2024-02-04T13:45:23;20.20;;;9.27;;
18459;SDS011;9359;50.932;6.924;2024-02-04T13:47:56;16.60;;;8.47;;
18459;SDS011;9359;50.932;6.924;2024-02-04T13:50:27;24.93;;;8.73;;
18459;SDS011;9359;50.932;6.924;2024-02-04T13:52:58;16.17;;;8.40;;
18459;SDS011;9359;50.932;6.924;2024-02-04T13:55:29;17.27;;;8.43;;
18459;SDS011;9359;50.932;6.924;2024-02-04T13:57:59;18.93;;;9.17;;
18459;SDS011;9359;50.932;6.924;2024-02-04T14:00:30;18.63;;;9.03;;
18459;SDS011;9359;50.932;6.924;2024-02-04T14:03:03;19.23;;;8.43;;
18459;SDS011;9359;50.932;6.924;2024-02-04T14:05:34;19.63;;;8.90;;
18459;SDS011;9359;50.932;6.924;2024-02-04T14:08:06;34.27;;;10.57;;
18459;SDS011;9359;50.932;6.924;2024-02-04T14:10:36;27.63;;;11.13;;
18459;SDS011;9359;50.932;6.924;2024-02-04T14:13:08;38.13;;;12.07;;
18459;SDS011;9359;50.932;6.924;2024-02-04T14:15:39;38.70;;;13.50;;
18459;SDS011;9359;50.932;6.924;2024-02-04T14:18:12;39.07;;;14.40;;
18459;SDS011;9359;50.932;6.924;2024-02-04T14:20:42;35.10;;;14.60;;
18459;SDS011;9359;50.932;6.924;2024-02-04T14:23:13;39.10;;;15.13;;
18459;SDS011;9359;50.932;6.924;2024-02-04T14:25:43;47.63;;;17.87;;
18459;SDS011;9359;50.932;6.924;2024-02-04T14:28:14;36.03;;;17.33;;
18459;SDS011;9359;50.932;6.924;2024-02-04T14:30:44;45.23;;;17.97;;
18459;SDS011;9359;50.932;6.924;2024-02-04T14:33:18;42.77;;;16.80;;
18459;SDS011;9359;50.932;6.924;2024-02-04T14:35:49;45.40;;;17.63;;
18459;SDS011;9359;50.932;6.924;2024-02-04T14:38:19;43.90;;;16.50;;
18459;SDS011;9359;50.932;6.924;2024-02-04T14:40:50;34.57;;;17.33;;
18459;SDS011;9359;50.932;6.924;2024-02-04T14:43:20;44.40;;;17.93;;
18459;SDS011;9359;50.932;6.924;2024-02-04T14:45:51;41.30;;;17.93;;
18459;SDS011;9359;50.932;6.924;2024-02-04T14:51:15;37.50;;;17.50;;
18459;SDS011;9359;50.932;6.924;2024-02-04T14:53:45;49.83;;;17.20;;
18459;SDS011;9359;50.932;6.924;2024-02-04T14:56:16;38.47;;;16.73;;
18459;SDS011;9359;50.932;6.924;2024-02-04T14:58:47;36.47;;;17.17;;
18459;SDS011;9359;50.932;6.924;2024-02-04T15:01:18;36.27;;;17.50;;
18459;SDS011;9359;50.932;6.924;2024-02-04T15:03:50;34.53;;;17.07;;
18459;SDS011;9359;50.932;6.924;2024-02-04T15:06:20;38.97;;;17.23;;